Time;durP1;ratioP1;P1;durP2;ratioP2;P2;SDS_P1;SDS_P2;PMS_P1;PMS_P2;Temp;Humidity;BMP_temperature;BMP_pressure;BME280_temperature;BME280_humidity;BME280_pressure;Samples;Min_cycle;Max_cycle;Signal;HPM_P1;HPM_P2
2022/07/10 00:01:32;;;;;;;4.32;0.88;;;16.70;91.30;;;;;;5012068;28;20038;-70
2022/07/10 00:03:58;;;;;;;8.90;1.45;;;16.70;91.30;;;;;;5007953;28;20376;-70
2022/07/10 00:06:23;;;;;;;6.32;0.90;;;16.70;91.30;;;;;;5002826;28;20096;-70
2022/07/10 00:08:49;;;;;;;5.15;0.95;;;16.80;91.40;;;;;;5011807;28;20408;-71
2022/07/10 00:11:15;;;;;;;6.32;1.02;;;16.70;91.30;;;;;;5011935;28;20049;-70
2022/07/10 00:13:40;;;;;;;9.55;1.42;;;16.80;91.30;;;;;;5027675;28;20104;-71
2022/07/10 00:16:06;;;;;;;4.72;1.08;;;16.80;91.20;;;;;;5011089;28;20041;-71
2022/07/10 00:18:32;;;;;;;10.02;1.10;;;16.70;91.20;;;;;;5007356;28;20022;-71
2022/07/10 00:20:57;;;;;;;12.27;1.42;;;16.70;91.30;;;;;;4998862;28;20026;-71
2022/07/10 00:23:25;;;;;;;12.05;1.33;;;16.60;91.30;;;;;;5011479;28;20072;-71
2022/07/10 00:25:51;;;;;;;4.18;0.88;;;16.50;91.60;;;;;;5027410;28;20068;-72
2022/07/10 00:28:17;;;;;;;8.85;0.93;;;16.60;91.50;;;;;;5026931;28;20057;-69
2022/07/10 00:30:42;;;;;;;7.07;1.60;;;16.50;91.60;;;;;;5011488;28;20046;-71
2022/07/10 00:33:08;;;;;;;8.15;1.08;;;16.50;91.60;;;;;;5011414;28;20068;-71
2022/07/10 00:35:33;;;;;;;7.25;0.95;;;16.40;91.70;;;;;;5006880;28;20066;-71
2022/07/10 00:37:59;;;;;;;6.57;0.90;;;16.40;91.90;;;;;;4992182;28;20030;-70
2022/07/10 00:40:25;;;;;;;5.15;0.90;;;16.30;92.00;;;;;;5010108;28;20451;-71
2022/07/10 00:42:50;;;;;;;7.03;1.13;;;16.30;92.00;;;;;;5011524;28;20452;-71
2022/07/10 00:45:16;;;;;;;9.52;1.00;;;16.30;92.00;;;;;;5011228;28;20041;-71
2022/07/10 00:47:42;;;;;;;8.48;0.82;;;16.40;91.90;;;;;;5011154;28;20030;-71
2022/07/10 00:50:08;;;;;;;8.48;1.23;;;16.30;92.00;;;;;;5011594;28;20368;-71
2022/07/10 00:52:38;;;;;;;9.90;1.25;;;16.40;92.10;;;;;;5011310;28;20038;-70
2022/07/10 00:55:06;;;;;;;6.35;1.05;;;16.40;92.00;;;;;;5026233;28;20060;-71
2022/07/10 00:57:32;;;;;;;5.13;0.85;;;16.30;92.10;;;;;;5010780;28;20030;-70
2022/07/10 00:59:58;;;;;;;9.93;1.10;;;16.30;92.20;;;;;;5011085;28;20025;-70
2022/07/10 01:02:24;;;;;;;5.68;0.70;;;16.40;92.10;;;;;;5011090;28;20037;-71
2022/07/10 01:04:49;;;;;;;7.18;1.00;;;16.40;92.10;;;;;;5011444;28;20449;-71
2022/07/10 01:07:15;;;;;;;7.32;1.17;;;16.40;92.10;;;;;;5011016;28;20344;-70
2022/07/10 01:09:41;;;;;;;5.03;0.82;;;16.40;92.20;;;;;;5010987;28;20034;-71
2022/07/10 01:12:10;;;;;;;7.90;1.00;;;16.30;92.20;;;;;;5011063;28;20449;-71
2022/07/10 01:14:37;;;;;;;;;;;16.40;92.30;;;;;;5011737;28;20130;-70
2022/07/10 01:17:05;;;;;;;6.80;0.90;;;16.40;92.20;;;;;;5011235;28;19909;-70
2022/07/10 01:19:31;;;;;;;8.55;1.30;;;16.40;92.20;;;;;;5010937;28;20034;-71
2022/07/10 01:21:57;;;;;;;12.18;1.67;;;16.30;92.30;;;;;;5026147;28;20096;-70
2022/07/10 01:24:23;;;;;;;8.63;1.30;;;16.30;92.30;;;;;;5010754;28;20026;-70
2022/07/10 01:26:48;;;;;;;2.83;0.63;;;16.30;92.40;;;;;;5010929;28;20407;-70
2022/07/10 01:29:14;;;;;;;8.30;0.93;;;16.30;92.40;;;;;;5014463;28;20065;-72
2022/07/10 01:31:40;;;;;;;6.25;1.05;;;16.20;92.50;;;;;;5015178;28;20383;-71
2022/07/10 01:34:10;;;;;;;9.65;1.20;;;16.20;92.60;;;;;;5014577;28;20026;-71
2022/07/10 01:36:37;;;;;;;7.55;1.00;;;16.10;92.50;;;;;;5028854;28;20099;-71
2022/07/10 01:39:03;;;;;;;8.73;1.13;;;16.10;92.90;;;;;;5034383;28;20036;-71
2022/07/10 01:41:29;;;;;;;5.68;0.98;;;16.10;92.70;;;;;;5034226;28;20116;-70
2022/07/10 01:43:55;;;;;;;3.83;0.98;;;16.10;92.70;;;;;;5033702;28;20087;-70
2022/07/10 01:46:21;;;;;;;4.05;0.68;;;16.10;92.80;;;;;;5034468;28;20029;-71
2022/07/10 01:48:47;;;;;;;6.72;0.88;;;16.00;92.90;;;;;;5034147;28;20026;-70
2022/07/10 01:51:13;;;;;;;4.70;0.70;;;16.00;92.90;;;;;;5034135;28;20052;-71
2022/07/10 01:53:40;;;;;;;4.65;1.00;;;16.00;93.10;;;;;;5033858;28;20098;-70
2022/07/10 01:56:09;;;;;;;4.88;1.10;;;16.00;93.20;;;;;;5033442;28;20025;-72
2022/07/10 01:58:35;;;;;;;8.90;1.02;;;16.00;93.30;;;;;;5034324;28;20091;-72
2022/07/10 02:01:01;;;;;;;7.38;1.25;;;16.00;93.40;;;;;;5033078;28;20042;-71
2022/07/10 02:06:11;;;;;;;5.13;0.82;;;15.80;94.00;;;;;;5033982;28;20037;-71
2022/07/10 02:08:37;;;;;;;5.57;0.93;;;15.90;94.30;;;;;;5032778;28;20395;-71
2022/07/10 02:11:06;;;;;;;4.70;0.77;;;15.90;94.10;;;;;;5033207;28;20021;-70
2022/07/10 02:13:32;;;;;;;10.65;0.95;;;15.90;94.00;;;;;;5032435;28;20057;-70
2022/07/10 02:15:58;;;;;;;3.15;0.57;;;15.80;94.60;;;;;;5033481;28;20060;-69
2022/07/10 02:18:24;;;;;;;4.97;0.65;;;15.80;94.40;;;;;;5033458;28;20532;-71
2022/07/10 02:20:51;;;;;;;3.65;0.70;;;15.90;94.30;;;;;;5033702;28;20037;-70
2022/07/10 02:23:17;;;;;;;4.85;0.88;;;15.80;94.30;;;;;;5033501;28;20018;-70
2022/07/10 02:25:43;;;;;;;6.40;1.08;;;15.80;94.20;;;;;;5033945;28;20470;-71
2022/07/10 02:28:09;;;;;;;6.72;0.93;;;15.80;94.20;;;;;;5033518;28;20140;-70
2022/07/10 02:30:36;;;;;;;6.10;1.40;;;15.80;94.10;;;;;;5032451;28;20029;-70
2022/07/10 02:33:02;;;;;;;3.50;0.75;;;15.80;94.50;;;;;;5033486;28;20033;-71
2022/07/10 02:35:27;;;;;;;5.05;1.15;;;15.90;94.10;;;;;;5033319;28;21702;-69
2022/07/10 02:37:53;;;;;;;5.85;0.90;;;15.80;94.10;;;;;;5033697;28;20056;-71
2022/07/10 02:40:19;;;;;;;5.78;0.95;;;15.80;94.30;;;;;;5032387;28;20045;-70
2022/07/10 02:42:45;;;;;;;3.33;0.75;;;15.80;94.20;;;;;;5033233;28;20514;-70
2022/07/10 02:45:11;;;;;;;5.00;0.90;;;15.80;94.20;;;;;;5033078;28;20030;-70
2022/07/10 02:47:36;;;;;;;5.68;0.85;;;15.70;94.40;;;;;;5033120;28;20037;-70
2022/07/10 02:50:02;;;;;;;8.68;0.95;;;15.70;94.60;;;;;;5033795;28;20024;-71
2022/07/10 02:52:30;;;;;;;2.92;0.80;;;15.70;94.60;;;;;;5033033;28;20033;-70
2022/07/10 02:54:57;;;;;;;4.18;0.82;;;15.80;94.70;;;;;;5032607;28;20120;-71
2022/07/10 02:57:23;;;;;;;10.30;1.25;;;15.70;94.70;;;;;;5032786;28;20044;-70
2022/07/10 02:59:48;;;;;;;8.63;0.95;;;15.80;94.70;;;;;;5032954;28;20391;-71
2022/07/10 03:02:15;;;;;;;8.23;1.20;;;15.70;94.80;;;;;;5032936;28;20025;-71
2022/07/10 03:04:41;;;;;;;7.57;0.88;;;15.80;94.70;;;;;;5033346;28;20068;-71
2022/07/10 03:07:07;;;;;;;3.72;0.52;;;15.80;94.70;;;;;;5032948;28;20492;-71
2022/07/10 03:09:32;;;;;;;9.05;1.08;;;15.80;94.80;;;;;;5032801;28;20109;-71
2022/07/10 03:11:58;;;;;;;2.97;0.73;;;15.90;94.70;;;;;;5032638;28;20026;-70
2022/07/10 03:14:23;;;;;;;3.67;0.88;;;15.90;94.80;;;;;;5032700;28;20028;-71
2022/07/10 03:16:49;;;;;;;6.13;0.80;;;15.80;94.90;;;;;;5032356;28;20364;-70
2022/07/10 03:19:15;;;;;;;4.22;0.70;;;15.90;94.90;;;;;;5032840;28;20424;-71
2022/07/10 03:21:40;;;;;;;4.40;0.73;;;15.80;95.10;;;;;;5032580;28;20087;-71
2022/07/10 03:24:06;;;;;;;8.02;1.15;;;15.70;95.30;;;;;;5032565;28;20478;-70
2022/07/10 03:26:32;;;;;;;9.65;0.95;;;15.80;95.30;;;;;;5032411;28;20033;-72
2022/07/10 03:28:57;;;;;;;6.32;1.27;;;15.80;95.30;;;;;;5032957;28;20013;-70
2022/07/10 03:31:23;;;;;;;6.20;1.33;;;15.90;95.20;;;;;;5032380;28;20379;-70
2022/07/10 03:33:49;;;;;;;8.75;0.82;;;15.90;95.40;;;;;;5031199;28;20034;-71
2022/07/10 03:36:15;;;;;;;4.25;1.00;;;15.80;95.40;;;;;;5032084;28;20069;-71
2022/07/10 03:38:41;;;;;;;10.45;1.70;;;15.90;95.50;;;;;;5031348;28;20651;-71
2022/07/10 03:41:06;;;;;;;7.57;1.05;;;16.00;95.30;;;;;;5031499;28;20324;-71
2022/07/10 03:43:32;;;;;;;10.35;1.25;;;15.90;95.50;;;;;;5031063;28;20037;-71
2022/07/10 03:45:58;;;;;;;6.25;0.90;;;15.80;95.60;;;;;;5032017;28;20363;-71
2022/07/10 03:48:24;;;;;;;8.15;1.30;;;15.80;95.60;;;;;;5031984;28;20025;-72
2022/07/10 03:50:51;;;;;;;6.60;0.93;;;15.80;95.80;;;;;;5032130;28;20025;-71
2022/07/10 03:53:18;;;;;;;4.75;0.88;;;15.90;95.70;;;;;;5032192;28;20032;-71
2022/07/10 03:55:44;;;;;;;8.27;1.17;;;15.80;95.70;;;;;;5031958;28;20475;-70
2022/07/10 03:58:10;;;;;;;5.82;1.13;;;15.90;95.70;;;;;;5032086;28;20040;-70
2022/07/10 04:00:38;;;;;;;13.02;1.70;;;15.90;95.60;;;;;;5031716;28;20026;-70
2022/07/10 04:03:07;;;;;;;6.55;1.00;;;15.80;95.70;;;;;;5031689;28;20336;-70
2022/07/10 04:05:33;;;;;;;7.05;1.25;;;15.90;95.80;;;;;;5031568;28;20056;-71
2022/07/10 04:08:02;;;;;;;7.32;1.02;;;15.80;95.90;;;;;;5031727;28;20029;-70
2022/07/10 04:10:29;;;;;;;8.43;1.00;;;15.80;95.80;;;;;;5031518;28;20040;-71
2022/07/10 04:12:56;;;;;;;4.95;0.95;;;15.90;95.60;;;;;;5031420;28;20057;-71
2022/07/10 04:15:21;;;;;;;4.40;0.77;;;15.90;95.60;;;;;;5031464;28;20043;-71
2022/07/10 04:17:48;;;;;;;13.02;1.40;;;15.90;95.60;;;;;;5031405;28;20113;-71
2022/07/10 04:20:15;;;;;;;6.45;1.10;;;15.90;95.70;;;;;;5031278;28;20513;-70
2022/07/10 04:22:41;;;;;;;8.85;1.60;;;15.90;95.60;;;;;;5031694;28;20014;-70
2022/07/10 04:25:07;;;;;;;6.13;0.95;;;15.90;95.70;;;;;;5031249;28;20032;-70
2022/07/10 04:27:33;;;;;;;6.47;0.90;;;15.90;95.60;;;;;;5031232;28;20347;-70
2022/07/10 04:29:59;;;;;;;7.65;1.30;;;15.90;95.70;;;;;;5031488;28;20117;-72
2022/07/10 04:32:25;;;;;;;12.25;1.25;;;15.90;95.60;;;;;;5031208;28;20056;-71
2022/07/10 04:34:50;;;;;;;6.40;1.27;;;16.00;95.80;;;;;;5030535;28;20034;-70
2022/07/10 04:37:16;;;;;;;10.45;1.55;;;16.00;95.50;;;;;;5031036;28;20459;-70
2022/07/10 04:39:42;;;;;;;5.45;1.00;;;15.90;95.70;;;;;;5030917;28;20025;-70
2022/07/10 04:42:08;;;;;;;10.90;1.63;;;15.90;95.70;;;;;;5030778;28;20475;-71
2022/07/10 04:44:36;;;;;;;8.70;1.20;;;15.90;95.70;;;;;;5031081;28;20124;-71
2022/07/10 04:47:02;;;;;;;6.63;1.10;;;15.90;95.80;;;;;;5031391;28;20022;-71
2022/07/10 04:49:28;;;;;;;3.58;0.70;;;15.90;95.80;;;;;;5030925;28;20269;-71
2022/07/10 04:51:54;;;;;;;4.00;0.73;;;15.90;95.90;;;;;;5030847;28;20109;-71
2022/07/10 04:54:20;;;;;;;5.15;1.02;;;15.80;95.90;;;;;;5030572;28;20471;-71
2022/07/10 04:56:45;;;;;;;12.05;1.08;;;15.90;95.80;;;;;;5030575;28;20064;-70
2022/07/10 04:59:11;;;;;;;4.88;1.23;;;15.90;95.70;;;;;;5030771;28;20072;-70
2022/07/10 05:01:37;;;;;;;5.18;0.88;;;15.80;95.60;;;;;;5030607;28;20451;-71
2022/07/10 05:04:03;;;;;;;6.40;1.95;;;15.90;95.40;;;;;;5030362;28;20030;-70
2022/07/10 05:06:29;;;;;;;4.22;1.00;;;15.80;95.50;;;;;;5030717;28;20318;-71
2022/07/10 05:08:55;;;;;;;4.68;0.93;;;15.90;95.50;;;;;;5030700;28;20025;-70
2022/07/10 05:11:21;;;;;;;5.20;0.95;;;15.90;95.50;;;;;;5029654;28;20098;-71
2022/07/10 05:13:48;;;;;;;5.43;0.90;;;15.80;95.40;;;;;;5031430;28;20025;-70
2022/07/10 05:16:15;;;;;;;5.18;0.95;;;15.80;95.60;;;;;;5030484;28;20044;-71
2022/07/10 05:18:41;;;;;;;13.38;1.40;;;15.80;95.50;;;;;;5030541;28;20543;-70
2022/07/10 05:21:07;;;;;;;4.25;0.75;;;15.80;95.50;;;;;;5027559;28;20036;-72
2022/07/10 05:23:33;;;;;;;10.65;0.95;;;15.90;95.40;;;;;;5031135;28;20198;-72
2022/07/10 05:25:59;;;;;;;3.65;0.73;;;15.90;95.40;;;;;;5012181;28;20033;-70
2022/07/10 05:28:24;;;;;;;5.45;1.10;;;16.00;95.50;;;;;;5025873;28;20359;-70
2022/07/10 05:30:50;;;;;;;4.95;1.15;;;16.00;95.60;;;;;;5030897;28;20379;-71
2022/07/10 05:33:17;;;;;;;5.68;0.80;;;16.00;95.40;;;;;;5030884;28;20447;-71
2022/07/10 05:35:43;;;;;;;4.57;0.80;;;16.00;95.30;;;;;;5030718;28;20041;-72
2022/07/10 05:38:08;;;;;;;6.65;0.95;;;16.00;95.40;;;;;;5029785;28;20029;-70
2022/07/10 05:40:34;;;;;;;11.05;1.38;;;16.10;95.40;;;;;;5030074;28;20025;-71
2022/07/10 05:43:00;;;;;;;5.85;1.00;;;16.00;95.30;;;;;;5030361;28;20037;-71
2022/07/10 05:45:26;;;;;;;8.95;1.10;;;16.00;95.50;;;;;;5030597;28;20037;-71
2022/07/10 05:47:52;;;;;;;5.57;1.25;;;16.10;95.40;;;;;;5029688;28;20460;-71
2022/07/10 05:50:17;;;;;;;8.00;1.27;;;16.00;95.20;;;;;;5030525;28;20100;-71
2022/07/10 05:52:43;;;;;;;4.65;1.30;;;16.10;95.30;;;;;;5031122;28;20018;-70
2022/07/10 05:55:09;;;;;;;8.50;1.40;;;16.10;95.20;;;;;;5030223;28;20041;-71
2022/07/10 05:57:35;;;;;;;12.40;1.20;;;16.10;95.10;;;;;;5030388;28;20033;-72
2022/07/10 06:00:03;;;;;;;4.60;1.00;;;16.10;95.00;;;;;;5029497;28;20036;-72
2022/07/10 06:02:29;;;;;;;10.10;1.20;;;16.10;95.00;;;;;;5029493;28;20340;-71
2022/07/10 06:04:55;;;;;;;9.13;1.10;;;16.10;95.10;;;;;;5031203;28;20097;-72
2022/07/10 06:07:21;;;;;;;7.65;1.77;;;16.20;95.10;;;;;;5030741;28;20048;-71
2022/07/10 06:09:46;;;;;;;10.85;1.17;;;16.30;95.00;;;;;;5030402;28;20025;-71
2022/07/10 06:12:12;;;;;;;10.77;1.88;;;16.40;94.80;;;;;;5030236;28;20090;-71
2022/07/10 06:14:37;;;;;;;5.20;1.02;;;16.40;94.80;;;;;;5031104;28;20079;-72
2022/07/10 06:17:03;;;;;;;4.65;1.05;;;16.40;94.70;;;;;;5034274;28;20049;-72
2022/07/10 06:19:29;;;;;;;5.75;1.17;;;16.40;94.60;;;;;;5033820;28;20030;-72
2022/07/10 06:24:39;;;;;;;9.05;1.35;;;16.40;94.60;;;;;;5034082;28;20068;-74
2022/07/10 06:27:05;;;;;;;6.97;1.25;;;16.50;94.50;;;;;;5033625;28;20037;-71
2022/07/10 06:29:31;;;;;;;10.10;1.75;;;16.60;94.40;;;;;;5028847;28;20053;-70
2022/07/10 06:31:57;;;;;;;5.75;0.70;;;16.40;94.40;;;;;;5014295;28;20025;-70
2022/07/10 06:34:23;;;;;;;6.43;0.98;;;16.50;94.50;;;;;;5014106;28;20030;-70
2022/07/10 06:36:48;;;;;;;13.95;2.80;;;16.60;94.30;;;;;;5013756;28;20108;-69
2022/07/10 06:39:14;;;;;;;6.68;1.17;;;16.60;94.10;;;;;;5012318;28;20033;-70
2022/07/10 06:41:40;;;;;;;11.35;1.67;;;16.70;94.10;;;;;;5013515;28;20494;-69
2022/07/10 06:44:06;;;;;;;5.32;1.30;;;16.70;93.90;;;;;;5013654;28;20048;-71
2022/07/10 06:46:32;;;;;;;6.43;0.90;;;16.80;93.80;;;;;;5013592;28;20140;-70
2022/07/10 06:48:59;;;;;;;8.10;1.55;;;16.80;93.60;;;;;;5013164;28;20168;-71
2022/07/10 06:51:24;;;;;;;6.93;1.38;;;16.90;93.60;;;;;;5013264;28;20041;-71
2022/07/10 06:53:50;;;;;;;6.80;1.17;;;16.90;93.70;;;;;;5013039;28;20025;-71
2022/07/10 06:56:16;;;;;;;10.25;1.40;;;17.00;93.80;;;;;;5013154;28;20061;-71
2022/07/10 06:58:42;;;;;;;5.00;1.00;;;17.10;93.70;;;;;;5013541;28;20041;-71
2022/07/10 07:01:08;;;;;;;7.53;1.58;;;17.20;93.50;;;;;;5013217;28;20030;-71
2022/07/10 07:03:34;;;;;;;4.05;0.90;;;17.30;93.40;;;;;;5013281;28;20050;-71
2022/07/10 07:06:00;;;;;;;5.07;0.80;;;17.30;93.00;;;;;;5012933;28;20057;-71
2022/07/10 07:08:25;;;;;;;6.35;1.30;;;17.30;92.90;;;;;;5011815;28;20376;-71
2022/07/10 07:10:51;;;;;;;11.93;1.33;;;17.30;92.70;;;;;;5012690;28;20032;-73
2022/07/10 07:13:17;;;;;;;10.80;1.00;;;17.30;92.60;;;;;;5012740;28;20030;-71
2022/07/10 07:15:49;;;;;;;6.68;1.17;;;17.30;92.50;;;;;;5012647;28;20042;-71
2022/07/10 07:18:16;;;;;;;8.93;1.30;;;17.30;92.60;;;;;;5012689;28;20068;-70
2022/07/10 07:23:26;;;;;;;8.70;1.67;;;17.40;92.60;;;;;;5012771;28;20036;-71
2022/07/10 07:25:52;;;;;;;5.38;1.50;;;17.60;92.40;;;;;;5012545;28;20029;-72
2022/07/10 07:28:19;;;;;;;13.57;1.80;;;17.60;92.10;;;;;;5012635;28;20029;-71
2022/07/10 07:30:46;;;;;;;10.02;1.20;;;17.60;92.00;;;;;;5012411;28;20038;-71
2022/07/10 07:33:13;;;;;;;7.73;1.23;;;17.60;92.10;;;;;;5011547;28;20398;-72
2022/07/10 07:35:39;;;;;;;6.43;1.50;;;17.70;91.90;;;;;;5012348;28;20264;-71
2022/07/10 07:38:05;;;;;;;6.57;1.45;;;17.70;91.50;;;;;;5012820;28;20029;-69
2022/07/10 07:40:32;;;;;;;9.85;1.40;;;17.70;91.50;;;;;;5012196;28;20060;-71
2022/07/10 07:42:58;;;;;;;3.17;1.05;;;17.80;91.20;;;;;;5012496;28;20038;-72
2022/07/10 07:45:25;;;;;;;9.05;1.27;;;17.80;91.00;;;;;;5012281;28;20100;-73
2022/07/10 07:48:04;;;;;;;8.52;1.45;;;17.90;90.90;;;;;;5012416;28;20161;-74
2022/07/10 07:50:32;;;;;;;5.65;1.10;;;17.90;90.60;;;;;;5011108;28;20052;-72
2022/07/10 07:52:59;;;;;;;8.98;1.58;;;17.80;90.40;;;;;;5012316;28;20097;-71
2022/07/10 07:55:25;;;;;;;11.98;1.83;;;17.80;90.40;;;;;;5011715;28;20076;-71
2022/07/10 07:57:55;;;;;;;4.93;1.27;;;17.90;90.50;;;;;;5010804;28;20038;-73
2022/07/10 08:00:23;;;;;;;9.63;1.25;;;18.00;90.10;;;;;;5011969;28;20134;-71
2022/07/10 08:02:50;;;;;;;11.02;2.00;;;18.20;90.10;;;;;;5011765;28;20022;-71
2022/07/10 08:05:16;;;;;;;6.00;1.40;;;18.40;89.10;;;;;;5012031;28;20057;-71
2022/07/10 08:07:45;;;;;;;9.90;1.35;;;18.50;87.60;;;;;;5012334;28;20030;-71
2022/07/10 08:10:16;;;;;;;12.30;1.58;;;18.60;86.60;;;;;;5011734;28;20034;-71
2022/07/10 08:12:43;;;;;;;11.15;1.67;;;18.70;86.10;;;;;;5011728;28;20121;-71
2022/07/10 08:15:10;;;;;;;8.32;1.33;;;19.00;86.40;;;;;;5011647;28;20514;-73
2022/07/10 08:17:37;;;;;;;13.65;1.50;;;19.00;85.70;;;;;;5011797;28;20046;-71
2022/07/10 08:20:05;;;;;;;7.53;1.40;;;19.00;85.40;;;;;;5012234;28;20018;-73
2022/07/10 08:22:31;;;;;;;9.52;1.52;;;19.10;85.20;;;;;;5011481;28;20030;-72
2022/07/10 08:24:57;;;;;;;10.48;1.77;;;19.60;83.10;;;;;;5011624;28;20045;-74
2022/07/10 08:27:23;;;;;;;10.40;1.52;;;20.10;81.10;;;;;;5011428;28;20021;-73
2022/07/10 08:29:49;;;;;;;10.07;1.95;;;20.00;79.50;;;;;;5011235;28;20022;-72
2022/07/10 08:32:14;;;;;;;8.23;1.40;;;19.90;79.50;;;;;;5011178;28;20033;-70
2022/07/10 08:34:40;;;;;;;7.45;1.27;;;20.00;80.00;;;;;;5011738;28;20097;-70
2022/07/10 08:37:06;;;;;;;6.78;1.55;;;20.00;81.20;;;;;;5009371;28;20100;-71
2022/07/10 08:39:33;;;;;;;10.35;1.65;;;19.90;80.60;;;;;;5011079;28;20392;-71
2022/07/10 08:41:59;;;;;;;8.98;1.50;;;20.00;79.40;;;;;;5010175;28;20041;-70
2022/07/10 08:44:26;;;;;;;5.57;1.45;;;20.00;80.00;;;;;;5011051;28;20160;-70
2022/07/10 08:46:52;;;;;;;9.88;1.50;;;19.60;79.60;;;;;;5011786;28;20041;-71
2022/07/10 08:49:19;;;;;;;8.88;1.85;;;19.90;80.20;;;;;;5010187;28;20022;-71
2022/07/10 08:51:58;;;;;;;;;;;20.40;80.00;;;;;;5011297;28;20445;-71
2022/07/10 08:54:24;;;;;;;10.80;1.50;;;21.30;78.00;;;;;;5010907;28;19921;-71
2022/07/10 08:56:51;;;;;;;5.50;1.27;;;21.50;75.40;;;;;;5010742;28;20038;-71
2022/07/10 08:59:19;;;;;;;;;;;21.30;76.60;;;;;;5011011;28;20104;-70
2022/07/10 09:01:44;;;;;;;6.13;1.48;;;21.30;76.80;;;;;;5011281;28;20272;-70
2022/07/10 09:04:20;;;;;;;8.88;1.50;;;21.10;75.80;;;;;;5010798;28;20113;-70
2022/07/10 09:06:47;;;;;;;7.53;1.98;;;20.90;77.10;;;;;;5010818;28;20117;-70
2022/07/10 09:09:13;;;;;;;11.95;2.45;;;20.60;76.50;;;;;;5010731;28;20088;-70
2022/07/10 09:11:43;;;;;;;8.85;1.52;;;20.70;76.80;;;;;;5010771;28;20030;-69
2022/07/10 09:14:13;;;;;;;6.60;1.52;;;20.40;77.00;;;;;;5010784;28;20740;-69
2022/07/10 09:16:42;;;;;;;7.47;1.13;;;20.40;77.70;;;;;;5011449;28;20038;-70
2022/07/10 09:19:22;;;;;;;12.68;1.50;;;20.10;80.30;;;;;;5011091;28;20167;-70
2022/07/10 09:21:50;;;;;;;8.85;1.40;;;20.00;81.70;;;;;;5009684;28;20092;-69
2022/07/10 09:24:25;;;;;;;4.90;1.55;;;19.90;81.70;;;;;;5010607;28;20044;-70
2022/07/10 09:26:56;;;;;;;8.63;1.85;;;19.70;82.90;;;;;;5010791;28;20088;-69
2022/07/10 09:29:22;;;;;;;8.25;1.48;;;19.50;82.90;;;;;;5010867;28;20036;-69
2022/07/10 09:31:52;;;;;;;7.13;1.30;;;19.20;84.00;;;;;;5011127;28;20026;-69
2022/07/10 09:34:39;;;;;;;6.40;1.25;;;19.50;84.80;;;;;;5010568;28;20285;-72
2022/07/10 09:37:24;;;;;;;6.05;1.42;;;19.70;83.70;;;;;;5010250;28;20038;-71
2022/07/10 09:40:04;;;;;;;8.45;1.13;;;19.90;82.80;;;;;;5010442;28;20030;-72
2022/07/10 09:42:30;;;;;;;14.93;1.42;;;19.70;82.60;;;;;;5009424;28;20395;-66
2022/07/10 09:45:14;;;;;;;7.57;1.40;;;19.70;84.00;;;;;;5010662;28;20030;-70
2022/07/10 09:47:58;;;;;;;6.93;1.48;;;19.50;84.10;;;;;;5009519;28;20345;-70
2022/07/10 09:50:31;;;;;;;8.80;1.50;;;19.50;86.30;;;;;;5013937;28;20026;-71
2022/07/10 09:53:10;;;;;;;9.85;1.42;;;19.40;85.70;;;;;;5014568;28;20041;-72
2022/07/10 09:55:37;;;;;;;8.18;1.58;;;19.40;85.30;;;;;;5014008;28;20368;-71
2022/07/10 09:58:07;;;;;;;8.20;1.50;;;19.60;85.50;;;;;;5014073;28;20045;-73
2022/07/10 10:00:35;;;;;;;9.55;2.05;;;19.80;83.40;;;;;;5014148;28;20023;-74
2022/07/10 10:03:05;;;;;;;9.77;1.85;;;20.10;83.10;;;;;;5014082;28;20030;-72
2022/07/10 10:05:54;;;;;;;10.48;1.90;;;20.30;82.00;;;;;;5013867;28;20045;-73
2022/07/10 10:08:27;;;;;;;9.32;1.90;;;20.80;82.00;;;;;;5013778;28;20105;-73
2022/07/10 10:10:56;;;;;;;18.30;2.47;;;20.80;78.30;;;;;;5014187;28;20018;-73
2022/07/10 10:13:23;;;;;;;9.82;1.40;;;21.00;78.30;;;;;;5013740;28;20518;-72
2022/07/10 10:15:51;;;;;;;8.80;1.38;;;21.20;77.10;;;;;;5012810;28;20317;-72
2022/07/10 10:18:21;;;;;;;6.78;2.00;;;21.20;76.80;;;;;;5013684;28;20022;-71
2022/07/10 10:20:48;;;;;;;9.82;1.55;;;21.20;78.10;;;;;;5013770;28;20376;-70
2022/07/10 10:23:20;;;;;;;9.50;1.70;;;21.30;76.40;;;;;;5012539;28;20030;-70
2022/07/10 10:25:51;;;;;;;3.58;1.25;;;21.10;76.80;;;;;;5014086;28;20475;-71
2022/07/10 10:28:23;;;;;;;13.00;1.90;;;21.40;76.30;;;;;;5014206;28;20038;-71
2022/07/10 10:30:57;;;;;;;7.78;2.17;;;21.20;74.70;;;;;;5013478;28;20052;-72
2022/07/10 10:33:32;;;;;;;9.65;2.20;;;21.20;74.00;;;;;;5013479;28;20081;-71
2022/07/10 10:35:59;;;;;;;8.73;1.98;;;21.30;74.70;;;;;;5013341;28;20122;-71
2022/07/10 10:38:47;;;;;;;10.27;1.33;;;21.40;74.30;;;;;;5013523;28;20096;-72
2022/07/10 10:41:46;;;;;;;7.80;1.45;;;21.40;74.10;;;;;;5013022;28;20037;-72
2022/07/10 10:44:16;;;;;;;7.65;1.27;;;21.20;73.20;;;;;;5013005;28;20049;-74
2022/07/10 10:46:53;;;;;;;4.28;1.10;;;21.00;71.80;;;;;;5013871;28;20061;-74
2022/07/10 10:49:20;;;;;;;6.10;1.40;;;21.20;72.80;;;;;;5013417;28;20364;-75
2022/07/10 10:52:07;;;;;;;6.65;1.40;;;21.10;71.60;;;;;;5013296;28;20528;-75
2022/07/10 10:54:57;;;;;;;6.43;1.15;;;21.30;72.50;;;;;;5013103;28;20104;-75
2022/07/10 10:57:44;;;;;;;8.85;1.08;;;21.50;72.20;;;;;;5013360;28;20471;-74
2022/07/10 11:00:14;;;;;;;3.75;1.17;;;21.60;71.40;;;;;;5011538;28;20034;-74
2022/07/10 11:02:41;;;;;;;4.90;1.30;;;21.40;71.40;;;;;;5013031;28;20042;-75
2022/07/10 11:05:19;;;;;;;8.50;1.02;;;21.50;70.80;;;;;;5013436;28;20100;-75
2022/07/10 11:07:56;;;;;;;8.35;1.77;;;21.50;70.40;;;;;;5013239;28;20042;-76
2022/07/10 11:10:35;;;;;;;6.72;1.50;;;21.40;70.00;;;;;;5012929;28;20034;-75
2022/07/10 11:13:05;;;;;;;6.65;1.30;;;21.30;70.30;;;;;;5011636;28;20112;-75
2022/07/10 11:15:33;;;;;;;6.50;1.15;;;21.40;70.40;;;;;;5012670;28;20077;-75
2022/07/10 11:18:10;;;;;;;6.95;1.20;;;21.60;70.50;;;;;;5012741;28;20438;-75
2022/07/10 11:20:39;;;;;;;6.32;1.42;;;21.60;70.30;;;;;;5012933;28;20030;-75
2022/07/10 11:23:34;;;;;;;6.50;1.30;;;21.50;70.30;;;;;;5011788;28;20368;-76
2022/07/10 11:26:39;;;;;;;8.15;2.00;;;21.20;71.30;;;;;;5012884;28;20519;-74
2022/07/10 11:29:06;;;;;;;9.68;1.48;;;21.60;71.50;;;;;;5010470;28;20048;-75
2022/07/10 11:31:37;;;;;;;5.60;1.25;;;21.30;70.30;;;;;;5011825;28;20219;-75
2022/07/10 11:34:04;;;;;;;3.80;0.85;;;21.50;70.80;;;;;;5012566;28;20026;-75
2022/07/10 11:36:32;;;;;;;5.80;1.50;;;21.60;69.40;;;;;;5012429;28;20464;-75
2022/07/10 11:38:58;;;;;;;;;;;21.70;69.30;;;;;;5013053;28;20074;-75
2022/07/10 11:41:24;;;;;;;5.03;1.58;;;21.60;69.30;;;;;;5012291;28;20004;-75
2022/07/10 11:43:55;;;;;;;4.20;1.38;;;21.60;69.10;;;;;;5012179;28;20438;-75
2022/07/10 11:46:24;;;;;;;3.97;1.10;;;21.60;69.20;;;;;;5012427;28;20119;-75
2022/07/10 11:48:52;;;;;;;6.07;1.38;;;21.70;69.60;;;;;;5011104;28;20049;-75
2022/07/10 11:51:32;;;;;;;5.32;0.98;;;21.80;69.10;;;;;;5012216;28;20488;-75
2022/07/10 11:54:07;;;;;;;6.25;1.30;;;21.50;68.40;;;;;;5011048;28;20056;-76
2022/07/10 11:56:38;;;;;;;3.80;0.95;;;21.40;67.50;;;;;;5012194;28;20060;-74
2022/07/10 11:59:06;;;;;;;4.30;0.90;;;21.40;68.40;;;;;;5011510;28;20026;-75
2022/07/10 12:01:34;;;;;;;5.28;0.85;;;21.30;67.80;;;;;;5012312;28;20034;-75
2022/07/10 12:04:03;;;;;;;7.35;2.88;;;21.10;68.80;;;;;;5012210;28;20472;-76
2022/07/10 12:06:30;;;;;;;10.98;1.70;;;21.00;69.80;;;;;;5010918;28;20038;-74
2022/07/10 12:09:03;;;;;;;4.60;1.30;;;21.00;70.70;;;;;;5011985;28;20471;-75
2022/07/10 12:11:29;;;;;;;7.45;1.40;;;21.00;71.10;;;;;;5011928;28;20034;-76
2022/07/10 12:14:16;;;;;;;4.47;1.13;;;21.10;71.50;;;;;;5011796;28;20187;-74
2022/07/10 12:16:44;;;;;;;5.43;1.20;;;21.00;72.20;;;;;;5011825;28;20440;-75
2022/07/10 12:19:14;;;;;;;8.85;1.10;;;21.30;72.80;;;;;;5011635;28;20038;-76
2022/07/10 12:21:44;;;;;;;8.32;1.85;;;21.40;72.80;;;;;;5011525;28;20030;-75
2022/07/10 12:24:11;;;;;;;8.82;1.38;;;21.30;72.90;;;;;;5011669;28;20040;-75
2022/07/10 12:26:42;;;;;;;5.10;1.48;;;21.10;74.10;;;;;;5011446;28;20026;-75
2022/07/10 12:29:32;;;;;;;8.90;2.13;;;20.80;75.10;;;;;;5012296;28;20037;-75
2022/07/10 12:32:01;;;;;;;15.07;4.20;;;20.80;75.80;;;;;;5011432;28;20038;-76
2022/07/10 12:34:39;;;;;;;9.05;1.70;;;20.70;75.50;;;;;;5011332;28;20077;-75
2022/07/10 12:37:09;;;;;;;9.40;1.95;;;20.70;75.90;;;;;;5011348;28;20038;-75
2022/07/10 12:39:38;;;;;;;5.00;1.67;;;20.90;75.90;;;;;;5011420;28;20519;-75
2022/07/10 12:42:06;;;;;;;9.15;1.58;;;21.10;75.80;;;;;;5011345;28;20054;-75
2022/07/10 12:44:48;;;;;;;6.78;2.35;;;21.00;76.30;;;;;;5011215;28;20337;-75
2022/07/10 12:47:19;;;;;;;11.15;2.03;;;21.10;76.10;;;;;;5010962;28;20026;-75
2022/07/10 12:49:56;;;;;;;5.63;1.23;;;21.10;76.00;;;;;;5011592;28;20037;-75
2022/07/10 12:52:26;;;;;;;3.95;1.27;;;21.10;76.90;;;;;;5010916;28;20034;-76
2022/07/10 12:55:13;;;;;;;10.82;1.40;;;21.00;77.40;;;;;;5010619;28;20122;-75
2022/07/10 12:57:53;;;;;;;9.68;1.95;;;20.90;77.50;;;;;;5011008;28;20058;-75
2022/07/10 13:00:23;;;;;;;8.95;1.35;;;20.80;78.00;;;;;;5010938;28;20022;-75